AirNav   Duncan Aviation - Near you to keep you flying
 
 384 users online  

01NC Topsail Airpark
Holly Ridge, North Carolina, USA

GOING TO HOLLY RIDGE?


FAA INFORMATION EFFECTIVE 03 NOVEMBER 2022

Location

FAA Identifier: 01NC
Lat/Long: 34-28-31.0000N 077-34-53.0000W
34-28.516667N 077-34.883333W
34.4752778,-77.5813889
(estimated)
Elevation: 65 ft. / 20 m (estimated)
Variation: 08W (1990)
From city: 2 miles SW of HOLLY RIDGE, NC
Time zone: UTC -5 (UTC -4 during Daylight Saving Time)
Zip code: 28443

Airport Operations

Airport use: Private use. Permission required prior to landing
Activation date: 08/1992
Control tower: no
ARTCC: WASHINGTON CENTER
FSS: RALEIGH FLIGHT SERVICE STATION
Attendance: IREG
Wind indicator: yes
Segmented circle: no
Lights: ACTVT RY LGTS RY 03/21THREE CLICKS ON FREQ 122.9.

Airport Communications

WX ASOS at NCA (16 nm NE): 288.325

Nearby radio navigation aids

VOR radial/distance  VOR name  Freq  Var
ILMr070/16.3WILMINGTON VORTAC117.0007W

 
NDB name  Hdg/Dist  Freq  Var  ID
DIXON237/8.519808WDIW -.. .. .--
WILZE064/14.120510WGM --. --

Airport Services

Runway Information

Runway 18/36

Dimensions: 2000 x 75 ft. / 610 x 23 m
Surface: asphalt/turf
15 FT CENTER IS ASPH.
RUNWAY 18  RUNWAY 36
Traffic pattern: leftright

Runway 3/21

Dimensions: 3200 x 75 ft. / 975 x 23 m
Surface: turf
Runway edge lights: non-standard
NON-STD LIRL, NON FAA APPROVED.
RUNWAY 3  RUNWAY 21
Traffic pattern: leftleft

Airport Ownership and Management from official FAA records

Ownership: Privately-owned
Owner: JOHN F. YOUNG
25311 HWY 17 N
HAMPSTEAD, NC 28443-2558
Phone 828-768-5002
Manager: JOHN F. YOUNG
108 INLET COURT
HAMPSTEAD, NC 28443-2558
Phone 910-270-2607

Airport Operational Statistics

Aircraft based on the field: 11
Single engine airplanes: 11
    

Additional Remarks

FOR CD CTC WASHINGTON ARTCC AT 703-771-3587.

Instrument Procedures

There are no published instrument procedures at 01NC.

Some nearby airports with instrument procedures:

KNCA - New River Marine Corps Air Station (McCutcheon Field) Airport (16 nm NE)
KILM - Wilmington International Airport (20 nm SW)
KOAJ - Albert J Ellis Airport (21 nm N)
KACZ - Henderson Field Airport (25 nm NW)
KDPL - Duplin County Airport (37 nm NW)
 
Loc | Ops | Rwys | IFR | FBO | Links
Com | Nav | Svcs | Stats | Notes
Area around 01NC (Topsail Airpark)
 
Road maps at: MapQuest Bing Google
 
Aerial photo
No photo
 
Sectional chart

 
Airport distance calculator
Flying to Topsail Airpark? Find the distance to fly.

From to 01NC

Sunrise and sunset
Times for 28-Nov-2022
 Local
(UTC-5)
 Zulu
(UTC)
Morning civil twilight06:3011:30
Sunrise06:5711:57
Sunset17:0022:00
Evening civil twilight17:2722:27

Current date and time
Zulu (UTC)  28-Nov-2022 09:32:06
Local (UTC-5)  28-Nov-2022 04:32:06
 
METAR
KNCA 
16nm NE 
280856Z AUTO 24007KT 10SM CLR 14/09 A2977 RMK AO2 SLP085 T01390089 $
KILM 
20nm SW 
280853Z AUTO 24011KT 10SM CLR 15/09 A2980 RMK AO2 SLP090 T01500089 51008 $
KOAJ 
21nm N 
280856Z AUTO 23006KT 10SM CLR 13/08 A2978 RMK AO2 SLP087 T01330083 53013
KNJM 
30nm NE 
280857Z AUTO 25010KT 10SM CLR 17/09 A2979 RMK AO2 SLP089 T01720089 53014
TAF
NOTAMs
Click for the latest NOTAMs
NOTAMs are issued by the DoD/FAA and will open in a separate window not controlled by AirNav.

 

 
 

Would you like to see your business listed on this page?

 If your business provides an interesting product or service to pilots, flight crews, aircraft, or users of the Topsail Airpark, you should consider listing it here.  To start the listing process, click on the button below
 
Add a business
 

Other Pages about Topsail Airpark

Update a link
 
Copyright © AirNav, LLC. All rights reserved. Privacy Policy  Contact